createdAt,value
2019-05-16T00:01:19.628Z,10.00
2019-05-16T00:03:53.460Z,10.00
2019-05-16T00:06:28.433Z,10.00
2019-05-16T00:09:02.104Z,10.00
2019-05-16T00:11:38.253Z,10.10
2019-05-16T00:14:11.300Z,10.10
2019-05-16T00:16:48.234Z,10.10
2019-05-16T00:19:21.218Z,10.10
2019-05-16T00:21:55.152Z,10.10
2019-05-16T00:24:29.138Z,10.10
2019-05-16T00:27:02.873Z,10.10
2019-05-16T00:29:38.354Z,10.10
2019-05-16T00:32:11.806Z,10.10
2019-05-16T00:34:47.811Z,10.20
2019-05-16T00:37:23.105Z,10.10
2019-05-16T00:39:58.920Z,10.10
2019-05-16T00:42:32.590Z,10.10
2019-05-16T00:45:09.920Z,10.10
2019-05-16T00:47:43.571Z,10.10
2019-05-16T00:50:18.550Z,10.10
2019-05-16T00:52:52.292Z,10.10
2019-05-16T00:55:28.268Z,10.10
2019-05-16T00:58:02.435Z,10.10
2019-05-16T01:00:42.263Z,10.10
2019-05-16T01:03:16.294Z,10.00
2019-05-16T01:05:50.082Z,10.00
2019-05-16T01:08:27.888Z,10.00
2019-05-16T01:11:01.017Z,10.00
2019-05-16T01:13:34.688Z,10.00
2019-05-16T01:16:08.775Z,10.10
2019-05-16T01:18:42.469Z,10.00
2019-05-16T01:21:18.379Z,10.00
2019-05-16T01:23:51.556Z,10.10
2019-05-16T01:26:28.510Z,10.10
2019-05-16T01:29:01.990Z,10.10
2019-05-16T01:31:37.851Z,10.10
2019-05-16T01:34:10.972Z,10.10
2019-05-16T01:36:44.579Z,10.00
2019-05-16T01:39:18.595Z,10.00
2019-05-16T01:41:52.268Z,10.00
2019-05-16T01:44:25.953Z,10.00
2019-05-16T01:47:00.471Z,10.00
2019-05-16T01:49:34.108Z,10.00
2019-05-16T01:52:08.503Z,10.00
2019-05-16T01:54:43.415Z,10.00
2019-05-16T01:57:18.151Z,10.00
2019-05-16T01:59:55.077Z,10.00
2019-05-16T02:02:29.051Z,10.00
2019-05-16T02:05:02.841Z,10.00
2019-05-16T02:07:38.795Z,10.00
2019-05-16T02:10:12.883Z,10.00
2019-05-16T02:12:48.806Z,10.00
2019-05-16T02:15:21.977Z,10.00
2019-05-16T02:17:55.654Z,10.00
2019-05-16T02:20:29.308Z,10.00
2019-05-16T02:23:03.031Z,10.00
2019-05-16T02:25:38.144Z,10.00
2019-05-16T02:28:11.882Z,10.00
2019-05-16T02:30:45.588Z,10.00
2019-05-16T02:33:21.321Z,10.00
2019-05-16T02:35:55.712Z,10.00
2019-05-16T02:38:31.709Z,10.00
2019-05-16T02:41:05.061Z,10.00
2019-05-16T02:43:41.737Z,10.00
2019-05-16T02:46:14.244Z,9.90
2019-05-16T02:48:51.562Z,9.80
2019-05-16T02:51:23.337Z,9.80
2019-05-16T02:53:56.927Z,9.80
2019-05-16T02:56:31.755Z,9.80
2019-05-16T02:59:05.565Z,9.80
2019-05-16T03:01:40.881Z,9.80
2019-05-16T03:04:14.821Z,9.80
2019-05-16T03:06:51.280Z,9.80
2019-05-16T03:09:24.052Z,9.80
2019-05-16T03:12:01.272Z,9.80
2019-05-16T03:14:35.458Z,9.70
2019-05-16T03:17:11.449Z,9.60
2019-05-16T03:19:46.709Z,9.50
2019-05-16T03:22:22.190Z,9.50
2019-05-16T03:24:55.801Z,9.40
2019-05-16T03:27:30.600Z,9.50
2019-05-16T03:30:06.974Z,9.50
2019-05-16T03:32:45.270Z,9.60
2019-05-16T03:35:16.831Z,9.60
2019-05-16T03:37:59.374Z,9.50
2019-05-16T03:40:31.071Z,9.50
2019-05-16T03:43:03.152Z,9.50
2019-05-16T03:45:36.851Z,9.40
2019-05-16T03:48:11.971Z,9.40
2019-05-16T03:50:45.796Z,9.40
2019-05-16T03:53:21.164Z,9.40
2019-05-16T03:55:54.842Z,9.40
2019-05-16T03:58:30.973Z,9.40
2019-05-16T04:01:03.799Z,9.40
2019-05-16T04:03:40.972Z,9.50
2019-05-16T04:06:12.702Z,9.50
2019-05-16T04:08:46.328Z,9.50
2019-05-16T04:11:23.178Z,9.60
2019-05-16T04:13:55.378Z,9.60
2019-05-16T04:16:31.335Z,9.70
2019-05-16T04:19:05.544Z,9.60
2019-05-16T04:21:42.194Z,9.60
2019-05-16T04:24:14.466Z,9.60
2019-05-16T04:26:51.350Z,9.70
2019-05-16T04:29:23.312Z,9.60
2019-05-16T04:31:56.976Z,8.10
2019-05-16T04:34:31.293Z,9.70
2019-05-16T04:37:05.045Z,9.70
2019-05-16T04:39:41.446Z,9.60
2019-05-16T04:42:13.870Z,9.70
2019-05-16T04:44:47.518Z,9.70
2019-05-16T04:47:21.231Z,9.70
2019-05-16T04:50:01.559Z,9.70
2019-05-16T04:52:33.501Z,9.70
2019-05-16T04:55:11.737Z,9.60
2019-05-16T04:57:44.015Z,9.60
2019-05-16T05:00:20.893Z,9.60
2019-05-16T05:02:53.331Z,9.60
2019-05-16T05:05:27.538Z,9.60
2019-05-16T05:08:01.583Z,9.60
2019-05-16T05:10:35.386Z,9.70
2019-05-16T05:13:11.000Z,9.70
2019-05-16T05:15:44.218Z,9.80
2019-05-16T05:18:20.806Z,9.80
2019-05-16T05:20:53.372Z,9.70
2019-05-16T05:23:30.145Z,9.60
2019-05-16T05:26:03.992Z,9.50
2019-05-16T05:28:40.283Z,9.40
2019-05-16T05:31:14.317Z,9.40
2019-05-16T05:33:50.549Z,9.30
2019-05-16T05:36:23.492Z,9.30
2019-05-16T05:39:10.923Z,9.30
2019-05-16T05:41:32.431Z,9.30
2019-05-16T05:44:07.564Z,9.30
2019-05-16T05:46:41.176Z,9.30
2019-05-16T05:49:15.062Z,9.30
2019-05-16T05:51:50.047Z,9.20
2019-05-16T05:54:24.959Z,9.20
2019-05-16T05:57:00.532Z,9.30
2019-05-16T05:59:34.125Z,9.40
2019-05-16T06:02:07.872Z,9.40
2019-05-16T06:04:42.874Z,9.40
2019-05-16T06:07:16.527Z,9.40
2019-05-16T06:09:56.461Z,9.30
2019-05-16T06:12:30.083Z,9.30
2019-05-16T06:15:08.819Z,9.30
2019-05-16T06:17:40.258Z,9.20
2019-05-16T06:20:14.937Z,9.10
2019-05-16T06:22:50.856Z,9.00
2019-05-16T06:25:24.116Z,9.00
2019-05-16T06:28:00.167Z,9.00
2019-05-16T06:30:33.462Z,9.00
2019-05-16T06:33:07.119Z,9.00
2019-05-16T06:35:44.570Z,8.90
2019-05-16T06:38:20.648Z,8.90
2019-05-16T06:40:53.787Z,8.90
2019-05-16T06:43:30.126Z,9.00
2019-05-16T06:46:04.342Z,9.00
2019-05-16T06:48:39.862Z,9.00
2019-05-16T06:51:13.288Z,9.10
2019-05-16T06:53:46.867Z,9.00
2019-05-16T06:58:53.262Z,9.00
2019-05-16T07:01:26.951Z,8.70
2019-05-16T07:04:00.675Z,8.50
2019-05-16T07:06:51.717Z,8.60
2019-05-16T07:09:10.512Z,8.70
2019-05-16T07:11:44.329Z,8.90
2019-05-16T07:14:22.527Z,9.10
2019-05-16T07:16:53.391Z,9.20
2019-05-16T07:19:27.079Z,9.40
2019-05-16T07:22:00.732Z,9.40
2019-05-16T07:24:35.562Z,9.30
2019-05-16T07:27:12.219Z,9.50
2019-05-16T07:29:44.412Z,9.60
2019-05-16T07:32:19.845Z,9.70
2019-05-16T07:34:53.391Z,9.60
2019-05-16T07:37:27.095Z,9.70
2019-05-16T07:40:15.590Z,9.80
2019-05-16T07:42:36.225Z,10.00
2019-05-16T07:47:43.005Z,10.10
2019-05-16T07:50:16.754Z,10.20
2019-05-16T07:52:51.251Z,10.00
2019-05-16T07:55:24.922Z,10.00
2019-05-16T07:57:59.630Z,9.90
2019-05-16T08:00:49.525Z,9.80
2019-05-16T08:03:10.492Z,9.80
2019-05-16T08:05:44.244Z,9.70
2019-05-16T08:08:23.280Z,9.70
2019-05-16T08:10:53.154Z,9.70
2019-05-16T08:13:30.619Z,9.80
2019-05-16T08:16:03.362Z,9.80
2019-05-16T08:18:36.982Z,9.80
2019-05-16T08:21:14.197Z,9.70
2019-05-16T08:23:46.188Z,9.60
2019-05-16T08:26:21.926Z,9.50
2019-05-16T08:28:55.172Z,9.60
2019-05-16T08:31:31.842Z,9.70
2019-05-16T08:34:04.236Z,9.70
2019-05-16T08:36:40.863Z,9.80
2019-05-16T08:39:13.192Z,9.70
2019-05-16T08:41:46.949Z,9.80
2019-05-16T08:44:21.482Z,9.80
2019-05-16T08:46:58.129Z,9.70
2019-05-16T08:49:30.867Z,9.70
2019-05-16T08:52:05.823Z,9.70
2019-05-16T08:57:27.006Z,9.20
2019-05-16T08:59:53.236Z,9.10
2019-05-16T09:02:33.534Z,9.00
2019-05-16T09:05:05.242Z,8.70
2019-05-16T09:07:35.934Z,8.70
2019-05-16T09:10:30.563Z,9.50
2019-05-16T09:10:42.723Z,8.70
2019-05-16T09:12:47.715Z,8.80
2019-05-16T09:15:21.045Z,8.90
2019-05-16T09:17:58.165Z,9.00
2019-05-16T09:20:31.033Z,8.90
2019-05-16T09:23:07.218Z,8.90
2019-05-16T09:25:40.487Z,9.10
2019-05-16T09:28:16.651Z,9.00
2019-05-16T09:30:49.522Z,9.00
2019-05-16T09:33:23.450Z,9.10
2019-05-16T09:35:57.766Z,9.20
2019-05-16T09:38:31.500Z,9.50
2019-05-16T09:41:07.934Z,9.50
2019-05-16T09:43:40.761Z,9.60
2019-05-16T09:46:17.162Z,9.70
2019-05-16T09:49:09.776Z,9.60
2019-05-16T09:51:27.211Z,9.40
2019-05-16T09:54:01.984Z,9.50
2019-05-16T09:56:36.946Z,9.50
2019-05-16T09:59:10.816Z,9.50
2019-05-16T10:01:47.496Z,9.50
2019-05-16T10:04:20.973Z,9.70
2019-05-16T10:06:57.268Z,9.60
2019-05-16T10:09:41.362Z,9.80
2019-05-16T10:12:15.039Z,9.90
2019-05-16T10:14:42.885Z,9.90
2019-05-16T10:17:17.788Z,10.00
2019-05-16T10:19:52.174Z,9.90
2019-05-16T10:22:27.283Z,10.50
2019-05-16T10:25:02.638Z,10.60
2019-05-16T10:27:37.162Z,10.80
2019-05-16T10:30:11.785Z,11.00
2019-05-16T10:32:47.753Z,11.60
2019-05-16T10:35:22.100Z,11.50
2019-05-16T10:37:57.663Z,11.80
2019-05-16T10:40:31.948Z,12.20
2019-05-16T10:43:07.594Z,12.30
2019-05-16T10:45:41.838Z,12.20
2019-05-16T10:48:17.743Z,12.60
2019-05-16T10:50:52.035Z,13.30
2019-05-16T10:53:52.314Z,13.70
2019-05-16T10:56:02.392Z,14.10
2019-05-16T10:58:51.683Z,14.40
2019-05-16T11:01:24.505Z,14.10
2019-05-16T11:03:49.214Z,14.10
2019-05-16T11:06:28.678Z,13.90
2019-05-16T11:08:59.451Z,13.90
2019-05-16T11:11:33.623Z,14.00
2019-05-16T11:14:09.314Z,14.80
2019-05-16T11:16:43.805Z,15.20
2019-05-16T11:19:23.604Z,15.40
2019-05-16T11:21:53.937Z,15.80
2019-05-16T11:24:29.288Z,15.20
2019-05-16T11:27:03.753Z,15.40
2019-05-16T11:29:37.986Z,15.10
2019-05-16T11:32:12.209Z,15.40
2019-05-16T11:34:47.963Z,15.40
2019-05-16T11:37:22.321Z,15.30
2019-05-16T11:39:57.165Z,15.10
2019-05-16T11:42:32.729Z,15.40
2019-05-16T11:45:09.886Z,15.10
2019-05-16T11:47:46.828Z,14.80
2019-05-16T11:50:20.099Z,15.10
2019-05-16T11:52:56.822Z,15.30
2019-05-16T11:55:34.179Z,15.20
2019-05-16T11:58:07.401Z,15.20
2019-05-16T12:00:41.654Z,15.80
2019-05-16T12:03:17.217Z,15.90
2019-05-16T12:06:11.355Z,15.60
2019-05-16T12:11:38.330Z,14.90
2019-05-16T12:14:12.655Z,14.60
2019-05-16T12:16:47.331Z,14.40
2019-05-16T12:19:21.637Z,14.60
2019-05-16T12:21:57.073Z,14.70
2019-05-16T12:24:37.186Z,15.00
2019-05-16T12:27:08.286Z,14.60
2019-05-16T12:29:42.625Z,14.80
2019-05-16T12:32:17.123Z,14.70
2019-05-16T12:34:51.333Z,14.50
2019-05-16T12:37:27.598Z,14.30
2019-05-16T12:40:01.642Z,14.50
2019-05-16T12:42:36.536Z,14.50
2019-05-16T12:45:11.341Z,14.10
2019-05-16T12:47:47.347Z,14.40
2019-05-16T12:50:22.447Z,14.40
2019-05-16T12:52:56.995Z,14.40
2019-05-16T12:55:31.278Z,14.30
2019-05-16T12:58:12.626Z,14.40
2019-05-16T13:00:44.042Z,14.00
2019-05-16T13:03:17.403Z,14.00
2019-05-16T13:05:51.705Z,14.00
2019-05-16T13:08:26.785Z,13.70
2019-05-16T13:11:01.224Z,13.80
2019-05-16T13:13:37.536Z,13.90
2019-05-16T13:16:11.469Z,13.90
2019-05-16T13:18:47.452Z,13.70
2019-05-16T13:21:22.896Z,13.70
2019-05-16T13:23:59.393Z,13.50
2019-05-16T13:26:33.631Z,13.40
2019-05-16T13:29:07.916Z,13.40
2019-05-16T13:31:42.171Z,13.60
2019-05-16T13:34:17.741Z,13.50
2019-05-16T13:36:52.277Z,13.50
2019-05-16T13:39:27.657Z,13.60
2019-05-16T13:42:01.915Z,13.70
2019-05-16T13:44:37.689Z,13.70
2019-05-16T13:47:13.030Z,13.60
2019-05-16T13:49:47.229Z,13.80
2019-05-16T13:52:22.429Z,13.80
2019-05-16T13:54:56.684Z,14.00
2019-05-16T13:57:30.891Z,13.90
2019-05-16T14:00:07.963Z,14.10
2019-05-16T14:02:44.240Z,14.10
2019-05-16T14:05:18.566Z,14.10
2019-05-16T14:07:52.772Z,14.20
2019-05-16T14:10:29.695Z,14.30
2019-05-16T14:13:04.029Z,14.00
2019-05-16T14:15:38.283Z,14.00
2019-05-16T14:18:13.871Z,14.00
2019-05-16T14:20:48.101Z,14.00
2019-05-16T14:23:22.364Z,14.30
2019-05-16T14:25:57.766Z,14.40
2019-05-16T14:28:32.101Z,14.40
2019-05-16T14:31:07.244Z,14.40
2019-05-16T14:33:41.669Z,14.40
2019-05-16T14:36:15.887Z,14.20
2019-05-16T14:38:50.310Z,14.50
2019-05-16T14:41:27.721Z,14.40
2019-05-16T14:44:01.416Z,14.40
2019-05-16T14:46:38.274Z,14.20
2019-05-16T14:49:12.687Z,14.40
2019-05-16T14:51:47.731Z,14.40
2019-05-16T14:54:22.156Z,14.10
2019-05-16T14:57:00.780Z,14.00
2019-05-16T14:59:32.193Z,14.00
2019-05-16T15:02:07.743Z,14.20
2019-05-16T15:04:42.021Z,14.20
2019-05-16T15:07:19.409Z,14.30
2019-05-16T15:09:53.268Z,14.10
2019-05-16T15:12:27.469Z,14.30
2019-05-16T15:15:15.669Z,14.20
2019-05-16T15:17:37.731Z,14.20
2019-05-16T15:20:12.930Z,14.10
2019-05-16T15:22:47.320Z,13.90
2019-05-16T15:25:22.666Z,13.80
2019-05-16T15:27:58.025Z,13.80
2019-05-16T15:30:32.717Z,13.90
2019-05-16T15:33:08.447Z,14.00
2019-05-16T15:35:43.298Z,13.80
2019-05-16T15:38:17.737Z,14.00
2019-05-16T15:40:51.939Z,13.90
2019-05-16T15:43:27.525Z,13.90
2019-05-16T15:46:02.175Z,14.10
2019-05-16T15:48:37.736Z,14.10
2019-05-16T15:51:12.412Z,14.10
2019-05-16T15:53:47.257Z,14.10
2019-05-16T15:56:21.598Z,14.10
2019-05-16T15:58:56.183Z,14.20
2019-05-16T16:01:30.555Z,14.20
2019-05-16T16:04:07.023Z,14.10
2019-05-16T16:06:43.165Z,14.00
2019-05-16T16:09:17.478Z,14.00
2019-05-16T16:11:51.805Z,14.10
2019-05-16T16:14:27.454Z,14.10
2019-05-16T16:17:01.785Z,14.20
2019-05-16T16:19:37.191Z,14.10
2019-05-16T16:22:11.555Z,13.90
2019-05-16T16:24:47.842Z,13.80
2019-05-16T16:27:22.359Z,13.70
2019-05-16T16:29:56.707Z,13.50
2019-05-16T16:32:30.979Z,13.50
2019-05-16T16:35:08.120Z,13.50
2019-05-16T16:37:41.469Z,13.50
2019-05-16T16:40:19.231Z,13.40
2019-05-16T16:42:53.648Z,13.50
2019-05-16T16:45:27.963Z,13.40
2019-05-16T16:48:02.167Z,13.40
2019-05-16T16:50:37.191Z,13.40
2019-05-16T16:53:11.455Z,13.30
2019-05-16T16:55:48.714Z,13.30
2019-05-16T16:58:22.916Z,13.30
2019-05-16T17:00:57.505Z,13.30
2019-05-16T17:03:31.937Z,13.20
2019-05-16T17:06:06.306Z,13.20
2019-05-16T17:08:40.480Z,13.10
2019-05-16T17:11:14.987Z,13.00
2019-05-16T17:13:49.207Z,13.00
2019-05-16T17:16:26.847Z,12.90
2019-05-16T17:18:59.441Z,12.90
2019-05-16T17:21:33.985Z,12.90
2019-05-16T17:24:08.260Z,12.80
2019-05-16T17:26:43.648Z,12.80
2019-05-16T17:29:17.973Z,12.80
2019-05-16T17:31:56.323Z,12.70
2019-05-16T17:34:28.068Z,12.70
2019-05-16T17:37:02.804Z,12.60
2019-05-16T17:39:37.079Z,12.60
2019-05-16T17:42:11.311Z,12.60
2019-05-16T17:44:47.292Z,12.60
2019-05-16T17:47:22.417Z,12.60
2019-05-16T17:49:56.650Z,12.50
2019-05-16T17:52:31.080Z,12.50
2019-05-16T17:55:07.410Z,12.40
2019-05-16T17:57:42.754Z,12.30
2019-05-16T18:00:25.342Z,12.30
2019-05-16T18:02:53.532Z,12.30
2019-05-16T18:05:27.764Z,12.20
2019-05-16T18:08:02.273Z,12.20
2019-05-16T18:10:36.768Z,12.10
2019-05-16T18:13:11.968Z,12.10
2019-05-16T18:15:47.323Z,12.00
2019-05-16T18:18:26.905Z,12.00
2019-05-16T18:21:02.375Z,12.00
2019-05-16T18:23:37.002Z,12.00
2019-05-16T18:26:11.279Z,12.00
2019-05-16T18:28:46.746Z,12.00
2019-05-16T18:31:20.987Z,12.00
2019-05-16T18:33:56.601Z,11.90
2019-05-16T18:36:30.808Z,11.80
2019-05-16T18:39:07.203Z,11.80
2019-05-16T18:41:41.491Z,11.80
2019-05-16T18:44:16.690Z,11.80
2019-05-16T18:47:04.049Z,11.80
2019-05-16T18:49:27.036Z,11.80
2019-05-16T18:52:01.288Z,11.70
2019-05-16T18:54:37.646Z,11.70
2019-05-16T18:57:11.488Z,11.70
2019-05-16T18:59:46.244Z,11.60
2019-05-16T19:02:20.544Z,11.60
2019-05-16T19:04:57.561Z,11.60
2019-05-16T19:07:30.704Z,11.60
2019-05-16T19:10:06.822Z,11.60
2019-05-16T19:12:41.058Z,11.50
2019-05-16T19:15:17.798Z,11.50
2019-05-16T19:17:51.491Z,11.50
2019-05-16T19:20:26.330Z,11.50
2019-05-16T19:23:00.290Z,11.50
2019-05-16T19:25:34.000Z,11.50
2019-05-16T19:28:08.546Z,11.50
2019-05-16T19:30:46.513Z,11.50
2019-05-16T19:33:20.384Z,11.50
2019-05-16T19:35:56.557Z,11.50
2019-05-16T19:38:30.270Z,11.50
2019-05-16T19:41:04.719Z,11.50
2019-05-16T19:46:12.283Z,11.30
2019-05-16T19:48:47.006Z,11.40
2019-05-16T19:51:21.221Z,11.30
2019-05-16T19:53:56.620Z,11.30
2019-05-16T19:56:30.394Z,12.10
2019-05-16T19:59:06.511Z,11.20
2019-05-16T20:01:40.454Z,11.20
2019-05-16T20:04:18.111Z,11.20
2019-05-16T20:06:50.152Z,11.10
2019-05-16T20:09:27.146Z,11.10
2019-05-16T20:12:02.047Z,11.10
2019-05-16T20:14:36.621Z,11.10
2019-05-16T20:17:10.330Z,11.10
2019-05-16T20:19:46.964Z,11.10
2019-05-16T20:22:20.886Z,11.00
2019-05-16T20:24:56.862Z,11.00
2019-05-16T20:27:30.481Z,11.00
2019-05-16T20:30:06.722Z,11.00
2019-05-16T20:32:40.544Z,11.00
2019-05-16T20:35:14.453Z,10.90
2019-05-16T20:37:48.287Z,10.80
2019-05-16T20:40:22.130Z,10.80
2019-05-16T20:42:56.458Z,10.70
2019-05-16T20:45:31.319Z,10.70
2019-05-16T20:48:12.291Z,10.60
2019-05-16T20:50:40.930Z,10.60
2019-05-16T20:53:14.640Z,10.60
2019-05-16T20:55:49.551Z,10.40
2019-05-16T20:58:23.906Z,10.40
2019-05-16T21:01:01.226Z,10.30
2019-05-16T21:03:34.205Z,10.80
2019-05-16T21:06:08.756Z,10.20
2019-05-16T21:08:43.018Z,10.20
2019-05-16T21:11:17.155Z,10.10
2019-05-16T21:13:51.175Z,10.10
2019-05-16T21:16:26.861Z,10.10
2019-05-16T21:19:00.396Z,10.00
2019-05-16T21:21:36.639Z,10.00
2019-05-16T21:24:09.747Z,10.00
2019-05-16T21:26:43.549Z,10.00
2019-05-16T21:29:19.505Z,10.00
2019-05-16T21:31:52.766Z,10.00
2019-05-16T21:34:27.251Z,9.90
2019-05-16T21:37:11.238Z,10.00
2019-05-16T21:39:37.754Z,9.90
2019-05-16T21:42:11.511Z,9.90
2019-05-16T21:44:46.640Z,9.90
2019-05-16T21:47:20.794Z,10.00
2019-05-16T21:49:56.676Z,9.90
2019-05-16T21:52:32.074Z,9.90
2019-05-16T21:55:07.566Z,9.80
2019-05-16T21:57:41.258Z,9.70
2019-05-16T22:00:21.245Z,9.70
2019-05-16T22:02:57.182Z,9.80
2019-05-16T22:05:32.437Z,9.70
2019-05-16T22:08:07.446Z,9.70
2019-05-16T22:10:41.823Z,9.70
2019-05-16T22:13:15.472Z,9.70
2019-05-16T22:15:49.461Z,9.80
2019-05-16T22:18:23.116Z,9.80
2019-05-16T22:20:58.146Z,9.70
2019-05-16T22:23:31.881Z,9.80
2019-05-16T22:26:07.690Z,9.80
2019-05-16T22:28:41.126Z,9.80
2019-05-16T22:31:16.514Z,9.80
2019-05-16T22:33:50.207Z,9.80
2019-05-16T22:36:23.834Z,9.70
2019-05-16T22:38:59.689Z,9.80
2019-05-16T22:41:33.407Z,9.70
2019-05-16T22:44:08.857Z,9.80
2019-05-16T22:46:42.922Z,9.80
2019-05-16T22:49:16.908Z,9.80
2019-05-16T22:51:51.110Z,9.70
2019-05-16T22:54:26.279Z,9.70
2019-05-16T22:57:06.684Z,9.70
2019-05-16T22:59:40.487Z,9.70
2019-05-16T23:02:16.699Z,9.60
2019-05-16T23:04:50.061Z,9.60
2019-05-16T23:07:23.947Z,9.60
2019-05-16T23:20:00.816Z,9.60
2019-05-16T23:22:36.924Z,9.60
2019-05-16T23:25:10.612Z,9.60
2019-05-16T23:37:47.835Z,9.60
2019-05-16T23:40:21.735Z,9.70
2019-05-16T23:42:56.936Z,9.70
2019-05-16T23:45:31.064Z,9.70
2019-05-16T23:48:09.516Z,9.70
2019-05-16T23:50:41.561Z,9.70
2019-05-16T23:53:16.431Z,9.80
2019-05-16T23:55:50.078Z,9.70
2019-05-16T23:58:24.084Z,9.70
